createdAt,value
2023-11-19T00:04:32.085Z,21.42
2023-11-19T00:09:53.755Z,23.42
2023-11-19T00:15:16.557Z,23.90
2023-11-19T00:20:38.155Z,23.27
2023-11-19T00:25:59.753Z,25.00
2023-11-19T00:31:21.575Z,27.15
2023-11-19T00:36:43.213Z,22.77
2023-11-19T00:42:05.058Z,21.70
2023-11-19T00:47:26.735Z,20.42
2023-11-19T00:52:48.377Z,22.38
2023-11-19T00:58:10.166Z,23.15
2023-11-19T01:03:31.860Z,22.40
2023-11-19T01:08:54.227Z,22.55
2023-11-19T01:14:15.854Z,18.73
2023-11-19T01:19:37.505Z,16.80
2023-11-19T01:24:59.340Z,16.58
2023-11-19T01:30:21.153Z,18.60
2023-11-19T01:35:42.857Z,20.15
2023-11-19T01:41:04.737Z,25.52
2023-11-19T01:46:27.528Z,22.52
2023-11-19T01:51:49.731Z,22.58
2023-11-19T01:57:11.712Z,19.73
2023-11-19T02:02:33.608Z,22.10
2023-11-19T02:07:55.387Z,24.42
2023-11-19T02:13:17.255Z,24.45
2023-11-19T02:18:39.884Z,21.90
2023-11-19T02:24:09.820Z,27.25
2023-11-19T02:29:31.717Z,30.13
2023-11-19T02:34:54.214Z,23.10
2023-11-19T02:40:16.013Z,29.67
2023-11-19T02:45:37.653Z,30.00
2023-11-19T02:50:59.270Z,26.95
2023-11-19T02:56:26.559Z,34.65
2023-11-19T03:01:51.371Z,26.05
2023-11-19T03:07:14.555Z,26.55
2023-11-19T03:12:36.599Z,32.55
2023-11-19T03:17:58.755Z,25.80
2023-11-19T03:23:20.532Z,28.58
2023-11-19T03:28:42.146Z,35.05
2023-11-19T03:34:04.274Z,25.75
2023-11-19T03:39:26.267Z,32.53
2023-11-19T03:44:48.278Z,28.73
2023-11-19T03:50:10.394Z,34.97
2023-11-19T03:55:32.495Z,32.97
2023-11-19T04:00:54.184Z,41.33
2023-11-19T04:06:15.753Z,37.78
2023-11-19T04:11:37.389Z,38.95
2023-11-19T04:16:59.004Z,37.35
2023-11-19T04:22:20.696Z,46.33
2023-11-19T04:27:42.609Z,35.50
2023-11-19T04:33:04.285Z,38.03
2023-11-19T04:38:27.862Z,29.33
2023-11-19T04:43:49.493Z,30.00
2023-11-19T04:49:20.633Z,39.30
2023-11-19T04:54:45.538Z,39.13
2023-11-19T05:05:33.286Z,28.23
2023-11-19T05:10:54.939Z,29.70
2023-11-19T05:16:16.863Z,29.85
2023-11-19T05:21:38.492Z,32.45
2023-11-19T05:27:00.157Z,30.55
2023-11-19T05:32:22.086Z,39.85
2023-11-19T05:37:44.054Z,33.53
2023-11-19T05:43:06.200Z,36.63
2023-11-19T05:48:28.721Z,35.53
2023-11-19T05:53:51.399Z,32.70
2023-11-19T05:59:16.715Z,29.52
2023-11-19T06:04:38.376Z,47.00
2023-11-19T06:09:59.991Z,40.20
2023-11-19T06:15:21.741Z,38.38
2023-11-19T06:20:44.783Z,39.60
2023-11-19T06:26:06.373Z,40.60
2023-11-19T06:31:28.008Z,40.45
2023-11-19T06:36:49.839Z,31.90
2023-11-19T06:42:11.727Z,43.33
2023-11-19T06:47:33.369Z,36.95
2023-11-19T06:52:54.985Z,47.95
2023-11-19T06:58:16.633Z,44.10
2023-11-19T07:03:38.305Z,44.97
2023-11-19T07:08:59.947Z,50.03
2023-11-19T07:14:21.582Z,49.80
2023-11-19T07:19:43.202Z,39.58
2023-11-19T07:25:05.060Z,48.03
2023-11-19T07:30:26.758Z,47.25
2023-11-19T07:35:49.104Z,43.33
2023-11-19T07:41:13.782Z,42.38
2023-11-19T07:46:36.784Z,43.67
2023-11-19T07:51:58.379Z,43.33
2023-11-19T07:57:19.988Z,39.50
2023-11-19T08:02:41.764Z,39.25
2023-11-19T08:08:03.426Z,38.30
2023-11-19T08:13:26.182Z,40.00
2023-11-19T08:18:47.999Z,43.22
2023-11-19T08:24:09.719Z,47.58
2023-11-19T08:29:31.486Z,47.55
2023-11-19T08:34:53.189Z,37.42
2023-11-19T08:40:18.420Z,41.28
2023-11-19T08:45:40.038Z,40.53
2023-11-19T08:51:01.664Z,45.70
2023-11-19T08:56:23.278Z,46.78
2023-11-19T09:01:44.909Z,40.25
2023-11-19T09:07:06.522Z,39.95
2023-11-19T09:12:28.470Z,31.48
2023-11-19T09:17:50.389Z,43.67
2023-11-19T09:23:13.269Z,31.88
2023-11-19T09:28:34.985Z,43.55
2023-11-19T09:33:56.744Z,48.28
2023-11-19T09:39:19.206Z,39.63
2023-11-19T09:44:43.657Z,47.05
2023-11-19T09:50:06.092Z,37.40
2023-11-19T09:55:27.651Z,41.50
2023-11-19T10:00:59.137Z,46.38
2023-11-19T10:06:32.344Z,56.88
2023-11-19T10:11:53.995Z,47.22
2023-11-19T10:17:15.708Z,45.30
2023-11-19T10:22:40.733Z,43.85
2023-11-19T10:28:02.365Z,38.07
2023-11-19T10:33:24.082Z,46.45
2023-11-19T10:38:56.239Z,48.03
2023-11-19T10:44:37.080Z,48.28
2023-11-19T10:49:58.829Z,43.40
2023-11-19T10:55:27.609Z,40.58
2023-11-19T11:00:55.313Z,46.95
2023-11-19T11:06:17.410Z,42.05
2023-11-19T11:11:41.422Z,43.50
2023-11-19T11:17:04.210Z,48.35
2023-11-19T11:28:06.555Z,55.70
2023-11-19T11:39:26.255Z,45.95
2023-11-19T11:45:14.555Z,42.65
2023-11-19T11:50:48.494Z,33.08
2023-11-19T11:56:11.064Z,42.55
2023-11-19T12:01:32.735Z,43.22
2023-11-19T12:07:13.895Z,44.15
2023-11-19T12:12:36.980Z,33.00
2023-11-19T12:17:58.764Z,32.10
2023-11-19T12:23:20.452Z,28.48
2023-11-19T12:28:42.070Z,27.15
2023-11-19T12:34:06.975Z,22.98
2023-11-19T12:39:31.428Z,23.98
2023-11-19T12:44:57.484Z,19.98
2023-11-19T12:50:20.149Z,13.70
2023-11-19T12:55:41.956Z,14.18
2023-11-19T13:01:05.394Z,11.13
2023-11-19T13:06:27.079Z,13.13
2023-11-19T13:11:48.916Z,16.25
2023-11-19T13:17:14.169Z,14.18
2023-11-19T13:22:35.893Z,18.63
2023-11-19T13:27:57.938Z,12.75
2023-11-19T13:33:19.699Z,20.52
2023-11-19T13:38:43.163Z,26.00
2023-11-19T13:44:04.971Z,28.00
2023-11-19T13:49:26.572Z,24.92
2023-11-19T13:54:48.188Z,35.35
2023-11-19T14:00:15.225Z,33.72
2023-11-19T14:05:38.423Z,30.77
2023-11-19T14:11:00.250Z,29.35
2023-11-19T14:16:22.330Z,34.17
2023-11-19T14:21:45.737Z,23.75
2023-11-19T14:27:07.374Z,22.80
2023-11-19T14:32:28.973Z,19.90
2023-11-19T14:37:50.803Z,16.15
2023-11-19T14:43:12.568Z,26.98
2023-11-19T14:48:34.231Z,19.52
2023-11-19T14:53:55.882Z,24.80
2023-11-19T14:59:17.477Z,19.67
2023-11-19T15:04:39.225Z,23.58
2023-11-19T15:10:02.051Z,26.45
2023-11-19T15:20:48.533Z,31.98
2023-11-19T15:26:11.855Z,27.02
2023-11-19T15:31:33.596Z,34.05
2023-11-19T15:36:55.192Z,29.75
2023-11-19T15:42:16.838Z,36.08
2023-11-19T15:47:38.835Z,30.45
2023-11-19T15:53:00.614Z,33.95
2023-11-19T15:58:23.475Z,31.58
2023-11-19T16:09:12.860Z,28.02
2023-11-19T16:14:34.500Z,37.63
2023-11-19T16:19:56.421Z,34.15
2023-11-19T16:25:18.145Z,32.28
2023-11-19T16:30:39.717Z,29.40
2023-11-19T16:36:01.564Z,30.75
2023-11-19T16:46:50.572Z,31.15
2023-11-19T16:52:12.768Z,32.67
2023-11-19T16:57:34.816Z,31.30
2023-11-19T17:03:00.179Z,33.42
2023-11-19T17:08:22.081Z,29.40
2023-11-19T17:13:43.718Z,36.67
2023-11-19T17:19:05.295Z,28.55
2023-11-19T17:24:26.916Z,31.13
2023-11-19T17:29:48.557Z,33.63
2023-11-19T17:35:10.713Z,32.20
2023-11-19T17:40:32.619Z,29.98
2023-11-19T17:45:57.897Z,27.42
2023-11-19T17:51:20.407Z,26.38
2023-11-19T17:56:42.166Z,30.40
2023-11-19T18:02:03.897Z,31.30
2023-11-19T18:07:25.491Z,25.25
2023-11-19T18:12:47.253Z,31.27
2023-11-19T18:18:10.394Z,33.67
2023-11-19T18:23:32.302Z,23.90
2023-11-19T18:28:54.585Z,33.17
2023-11-19T18:34:16.347Z,26.85
2023-11-19T18:39:41.556Z,33.28
2023-11-19T18:45:05.416Z,25.10
2023-11-19T18:50:27.016Z,33.92
2023-11-19T18:55:48.757Z,29.92
2023-11-19T19:01:11.066Z,27.20
2023-11-19T19:06:34.148Z,35.63
2023-11-19T19:11:55.744Z,33.33
2023-11-19T19:17:17.580Z,27.00
2023-11-19T19:22:41.167Z,27.15
2023-11-19T19:33:27.745Z,23.35
2023-11-19T19:38:49.350Z,29.25
2023-11-19T19:44:12.321Z,25.80
2023-11-19T19:49:34.216Z,31.05
2023-11-19T19:54:55.829Z,26.13
2023-11-19T20:00:19.006Z,29.25
2023-11-19T20:05:45.469Z,29.52
2023-11-19T20:11:10.364Z,28.98
2023-11-19T20:16:32.222Z,34.87
2023-11-19T20:21:53.863Z,33.72
2023-11-19T20:27:17.645Z,38.50
2023-11-19T20:32:39.309Z,28.10
2023-11-19T20:38:01.900Z,25.80
2023-11-19T20:43:23.471Z,31.77
2023-11-19T20:48:45.361Z,28.92
2023-11-19T20:54:07.633Z,31.55
2023-11-19T20:59:29.209Z,25.95
2023-11-19T21:04:50.855Z,26.02
2023-11-19T21:10:16.140Z,30.50
2023-11-19T21:15:43.936Z,34.08
2023-11-19T21:21:12.092Z,31.05
2023-11-19T21:26:34.335Z,21.17
2023-11-19T21:31:56.172Z,15.95
2023-11-19T21:37:18.059Z,13.20
2023-11-19T21:42:39.679Z,10.30
2023-11-19T21:48:01.379Z,18.17
2023-11-19T21:53:22.944Z,15.32
2023-11-19T21:58:44.621Z,12.38
2023-11-19T22:04:06.630Z,7.47
2023-11-19T22:09:28.634Z,10.70
2023-11-19T22:14:50.281Z,10.70
2023-11-19T22:25:37.332Z,9.13
2023-11-19T22:30:59.033Z,17.08
2023-11-19T22:36:20.972Z,12.13
2023-11-19T22:41:43.094Z,10.07
2023-11-19T22:47:05.801Z,10.30
2023-11-19T22:52:27.390Z,13.20
2023-11-19T23:03:13.720Z,9.43
2023-11-19T23:08:37.255Z,9.48
2023-11-19T23:13:59.152Z,8.93
2023-11-19T23:19:21.231Z,14.90
2023-11-19T23:24:42.863Z,5.10
2023-11-19T23:30:05.277Z,6.28
2023-11-19T23:35:27.475Z,6.75
2023-11-19T23:40:49.447Z,4.70
2023-11-19T23:46:12.722Z,4.82
2023-11-19T23:51:38.602Z,5.93
2023-11-19T23:57:00.196Z,3.75
